Etusivu
METAR-TAF:

METAR-TAF

Lentoasemat :

Kansas City, Missouri, Yhdysvallat

Kansas Cityn kansainvälinen lentoasema

Leveyspiiri: 39-17-50N, Pituuspiiri: 094-43-50W, korkeus merenpinnasta: 312 m

Tämänhetkinen sää

Tämä raportti tehtiin 58 minuuttia sitten, kello 10.53 UTC
Tuuli 6 kn lännestä/luoteesta
Lämpötila 9°C
Kosteus 93%
Ilmanpaine 1018 hPa
Näkyvyys: 16.1 km
Pilvistä 13000 ft:n korkeudessa

METAR: KMCI 221053Z 30006KT 10SM OVC130 09/08 A3007 RMK AO2 DZE0957 SLP177 P0000 T00940083 $

Aika: 06:51 (11:51 UTC)

Sääennuste

Tämä raportti tehtiin 31 minuuttia sitten, kello 11.20 UTC
Ennuste voimassa 22. päivästä klo 12 UTC - 23. päivään klo 12 UTC
Tuuli 8 kn lännestä/luoteesta
Näkyvyys: 10 km
Hajanaisia pilviä 20000 ft:n korkeudessa
From 23. päivästä klo 0000 UTC
Tuuli 5 kn etelästä
Näkyvyys: 10 km
selkeää

TAF: KMCI 221120Z 2212/2312 30008KT P6SM SCT200 FM230000 18005KT P6SM SKC

Säähavainnot ja -ennusteet yli 4000 lentoasemalta (METAR- ja TAF-raportit).

Käytössä olevat sääasemat on merkitty karttaan keltaisilla ja punaisilla pisteillä.

Aseta hiiri pisteen päälle nähdäksesi sääaseman nimen.

Klikkaa sitten nähdäksesi säähavainnot ja -ennusteet.

Kartan vaihtaminen: klikkaa mustalla rastilla varustettuja vihreitä pisteitä, niin voit zoomata sisään; viivalla varustettua vihreää pistettä, niin voit zoomata ulos tai vihreitä nuolia, niin pääset viereisille kartoille.


METAR-TAF: